Time;durP1;ratioP1;P1;durP2;ratioP2;P2;SDS_P1;SDS_P2;PMS_P1;PMS_P2;Temp;Humidity;BMP_temperature;BMP_pressure;BME280_temperature;BME280_humidity;BME280_pressure;Samples;Min_cycle;Max_cycle;Signal;HPM_P1;HPM_P2
2022/11/07 00:02:07;;;;;;;14.07;7.25;;;10.20;99.90;;;;;;6207505;23;20015;-82
2022/11/07 00:04:33;;;;;;;10.02;6.82;;;10.30;99.90;;;;;;6179713;23;20017;-82
2022/11/07 00:06:58;;;;;;;9.50;6.78;;;10.30;99.90;;;;;;6180430;23;20009;-82
2022/11/07 00:09:24;;;;;;;9.90;6.65;;;10.30;99.90;;;;;;6179894;23;20098;-82
2022/11/07 00:11:50;;;;;;;13.02;6.63;;;10.30;99.90;;;;;;6206388;23;20087;-82
2022/11/07 00:14:17;;;;;;;11.32;6.78;;;10.30;99.90;;;;;;6181913;23;20380;-83
2022/11/07 00:16:46;;;;;;;15.75;6.57;;;10.20;99.90;;;;;;6183527;23;20024;-83
2022/11/07 00:19:13;;;;;;;9.52;6.47;;;10.20;99.90;;;;;;6183921;23;20063;-82
2022/11/07 00:21:39;;;;;;;14.10;6.63;;;10.20;99.90;;;;;;6184157;23;20349;-82
2022/11/07 00:24:06;;;;;;;16.58;6.68;;;10.30;99.90;;;;;;6212422;23;20381;-82
2022/11/07 00:26:32;;;;;;;13.70;6.55;;;10.30;99.90;;;;;;6184871;23;20021;-82
2022/11/07 00:28:57;;;;;;;12.02;6.20;;;10.30;99.90;;;;;;6211397;23;20024;-82
2022/11/07 00:31:23;;;;;;;10.98;6.57;;;10.40;99.90;;;;;;6212054;23;20451;-82
2022/11/07 00:33:48;;;;;;;12.73;6.47;;;10.40;99.90;;;;;;6185395;23;20040;-82
2022/11/07 00:36:23;;;;;;;11.27;6.63;;;10.50;99.90;;;;;;6211821;23;20008;-82
2022/11/07 00:38:49;;;;;;;12.32;6.13;;;10.50;99.90;;;;;;6211895;23;20031;-82
2022/11/07 00:41:15;;;;;;;12.15;6.03;;;10.50;99.90;;;;;;6185675;23;20416;-82
2022/11/07 00:43:40;;;;;;;11.45;6.32;;;10.50;99.90;;;;;;6210877;23;20056;-82
2022/11/07 00:46:08;;;;;;;12.60;5.85;;;10.50;99.90;;;;;;6211766;23;20020;-82
2022/11/07 00:48:35;;;;;;;10.52;5.90;;;10.60;99.90;;;;;;6185571;23;20020;-83
2022/11/07 00:51:10;;;;;;;9.80;5.35;;;10.60;99.90;;;;;;6184066;23;20394;-82
2022/11/07 00:53:36;;;;;;;10.27;5.93;;;10.60;99.90;;;;;;6184644;23;20026;-82
2022/11/07 00:56:04;;;;;;;13.02;5.43;;;10.60;99.90;;;;;;6159565;23;20042;-82
2022/11/07 00:58:30;;;;;;;8.88;5.60;;;10.60;99.90;;;;;;6184305;23;20055;-82
2022/11/07 01:00:56;;;;;;;11.02;5.97;;;10.70;99.90;;;;;;6185213;23;20013;-82
2022/11/07 01:06:07;;;;;;;11.50;5.20;;;10.70;99.90;;;;;;6185429;23;20024;-82
2022/11/07 01:08:32;;;;;;;10.55;5.63;;;10.70;99.90;;;;;;6211458;23;20092;-82
2022/11/07 01:11:01;;;;;;;10.50;5.30;;;10.70;99.90;;;;;;6212202;23;20048;-82
2022/11/07 01:13:27;;;;;;;9.65;5.07;;;10.80;99.90;;;;;;6184485;23;20020;-82
2022/11/07 01:15:53;;;;;;;11.75;5.03;;;10.80;99.90;;;;;;6212552;23;20087;-83
2022/11/07 01:18:19;;;;;;;13.55;5.15;;;10.80;99.90;;;;;;6212263;23;20008;-83
2022/11/07 01:20:44;;;;;;;9.65;5.05;;;10.80;99.90;;;;;;6185532;23;20020;-82
2022/11/07 01:23:10;;;;;;;12.82;5.68;;;10.80;99.90;;;;;;6211249;23;20075;-82
2022/11/07 01:25:37;;;;;;;10.60;5.10;;;10.80;99.90;;;;;;6184840;23;20108;-82
2022/11/07 01:28:04;;;;;;;8.32;4.50;;;10.90;99.90;;;;;;6185060;23;20448;-82
2022/11/07 01:30:30;;;;;;;10.98;5.05;;;10.90;99.90;;;;;;6184281;23;20016;-82
2022/11/07 01:32:55;;;;;;;13.45;4.97;;;11.00;99.90;;;;;;6183578;23;20400;-82
2022/11/07 01:35:21;;;;;;;12.77;5.05;;;11.00;99.90;;;;;;6184614;23;20430;-82
2022/11/07 01:37:47;;;;;;;12.00;4.55;;;11.00;99.90;;;;;;6184390;23;20348;-83
2022/11/07 01:40:12;;;;;;;9.32;4.65;;;11.00;99.90;;;;;;6184621;23;20021;-82
2022/11/07 01:42:38;;;;;;;12.10;4.05;;;11.00;99.90;;;;;;6183694;23;20020;-82
2022/11/07 01:45:04;;;;;;;11.68;4.72;;;11.00;99.90;;;;;;6184802;23;20421;-83
2022/11/07 01:47:37;;;;;;;10.82;4.95;;;11.00;99.90;;;;;;6211516;23;20009;-82
2022/11/07 01:50:05;;;;;;;15.05;5.25;;;11.10;99.90;;;;;;6184216;23;20020;-82
2022/11/07 01:52:35;;;;;;;15.68;5.20;;;11.00;99.90;;;;;;6211601;23;20023;-82
2022/11/07 01:55:11;;;;;;;9.07;5.35;;;11.00;99.90;;;;;;6211666;23;20017;-82
2022/11/07 01:57:45;;;;;;;9.60;4.80;;;11.00;99.90;;;;;;6183526;23;20032;-82
2022/11/07 02:00:14;;;;;;;9.93;4.60;;;11.00;99.90;;;;;;6210855;23;20023;-82
2022/11/07 02:02:41;;;;;;;13.25;4.53;;;11.00;99.90;;;;;;6210572;23;20017;-82
2022/11/07 02:05:08;;;;;;;9.52;4.18;;;10.90;99.90;;;;;;6212016;23;20023;-82
2022/11/07 02:07:34;;;;;;;11.93;4.60;;;10.90;99.90;;;;;;6211073;23;20017;-82
2022/11/07 02:10:01;;;;;;;13.70;4.82;;;10.90;99.90;;;;;;6211188;23;20583;-83
2022/11/07 02:12:27;;;;;;;11.68;4.70;;;10.90;99.90;;;;;;6183954;23;20052;-82
2022/11/07 02:14:54;;;;;;;11.25;4.28;;;10.90;99.90;;;;;;6185281;23;20023;-82
2022/11/07 02:17:20;;;;;;;13.70;4.80;;;10.90;99.90;;;;;;6159245;23;20441;-81
2022/11/07 02:19:49;;;;;;;16.05;5.15;;;10.90;99.90;;;;;;6184590;23;20064;-82
2022/11/07 02:22:28;;;;;;;10.32;4.60;;;11.00;99.90;;;;;;6211604;23;20074;-82
2022/11/07 02:25:00;;;;;;;11.88;5.32;;;11.00;99.90;;;;;;6159202;23;20013;-82
2022/11/07 02:27:28;;;;;;;14.25;5.30;;;11.00;99.90;;;;;;6184146;23;20016;-82
2022/11/07 02:29:59;;;;;;;15.05;5.38;;;11.00;99.90;;;;;;6182919;23;20436;-82
2022/11/07 02:32:24;;;;;;;9.48;5.95;;;11.00;99.90;;;;;;6183692;23;20070;-82
2022/11/07 02:35:06;;;;;;;19.38;5.93;;;10.90;99.90;;;;;;6183903;23;20645;-82
2022/11/07 02:37:37;;;;;;;11.85;5.85;;;10.90;99.90;;;;;;6183966;23;20373;-82
2022/11/07 02:40:06;;;;;;;10.88;6.07;;;10.90;99.90;;;;;;6183944;23;20105;-83
2022/11/07 02:42:45;;;;;;;14.95;5.88;;;10.90;99.90;;;;;;6184867;23;20025;-83
2022/11/07 02:45:25;;;;;;;15.68;6.20;;;10.90;99.90;;;;;;6184218;23;20027;-83
2022/11/07 02:47:51;;;;;;;16.23;6.90;;;10.80;99.90;;;;;;6183968;23;20448;-83
2022/11/07 02:50:17;;;;;;;10.10;5.93;;;10.80;99.90;;;;;;6211349;23;20016;-82
2022/11/07 02:52:42;;;;;;;15.13;5.80;;;10.80;99.90;;;;;;6211748;23;20135;-82
2022/11/07 02:55:09;;;;;;;13.30;5.38;;;10.80;99.90;;;;;;6211184;23;20012;-83
2022/11/07 02:57:35;;;;;;;14.35;5.18;;;10.70;99.90;;;;;;6159114;23;20023;-82
2022/11/07 03:00:01;;;;;;;10.93;5.50;;;10.70;99.90;;;;;;6182624;23;20032;-82
2022/11/07 03:02:26;;;;;;;17.33;5.93;;;10.70;99.90;;;;;;6210528;23;20078;-83
2022/11/07 03:04:52;;;;;;;9.25;5.45;;;10.80;99.90;;;;;;6182902;23;20021;-83
2022/11/07 03:07:18;;;;;;;12.70;4.38;;;10.70;99.90;;;;;;6183956;23;20044;-82
2022/11/07 03:09:44;;;;;;;11.55;5.22;;;10.80;99.90;;;;;;6210519;23;20017;-82
2022/11/07 03:12:09;;;;;;;11.07;5.43;;;10.70;99.90;;;;;;6210309;23;20020;-82
2022/11/07 03:14:35;;;;;;;11.10;5.22;;;10.70;99.90;;;;;;6210994;23;20076;-83
2022/11/07 03:17:00;;;;;;;15.77;6.75;;;10.70;99.90;;;;;;6184106;23;20036;-83
2022/11/07 03:19:26;;;;;;;11.90;5.38;;;10.70;99.90;;;;;;6183927;23;20016;-82
2022/11/07 03:21:51;;;;;;;13.77;5.90;;;10.70;99.90;;;;;;6183803;23;20051;-83
2022/11/07 03:24:17;;;;;;;13.48;5.32;;;10.60;99.90;;;;;;6210907;23;20018;-83
2022/11/07 03:26:43;;;;;;;14.77;5.82;;;10.60;99.90;;;;;;6209058;23;20012;-83
2022/11/07 03:29:09;;;;;;;13.93;5.82;;;10.60;99.90;;;;;;6184145;23;20047;-82
2022/11/07 03:31:35;;;;;;;13.02;5.95;;;10.50;99.90;;;;;;6210732;23;20013;-83
2022/11/07 03:34:00;;;;;;;15.80;5.63;;;10.50;99.90;;;;;;6183748;23;20024;-83
2022/11/07 03:36:26;;;;;;;20.13;5.50;;;10.50;99.90;;;;;;6183672;23;20040;-82
2022/11/07 03:38:51;;;;;;;14.68;5.43;;;10.50;99.90;;;;;;6183201;23;20031;-82
2022/11/07 03:41:17;;;;;;;11.73;5.10;;;10.50;99.90;;;;;;6183858;23;20024;-83
2022/11/07 03:43:46;;;;;;;16.33;5.18;;;10.50;99.90;;;;;;6184162;23;20040;-82
2022/11/07 03:46:13;;;;;;;12.48;4.93;;;10.40;99.90;;;;;;6210657;23;20056;-82
2022/11/07 03:48:39;;;;;;;11.18;5.13;;;10.40;99.90;;;;;;6183651;23;20012;-82
2022/11/07 03:51:06;;;;;;;14.45;5.47;;;10.30;99.90;;;;;;6182863;23;20063;-83
2022/11/07 03:53:31;;;;;;;14.77;5.22;;;10.30;99.90;;;;;;6182936;23;20019;-83
2022/11/07 03:55:57;;;;;;;13.93;4.70;;;10.40;99.90;;;;;;6185467;23;20059;-83
2022/11/07 03:58:24;;;;;;;15.57;6.30;;;10.40;99.90;;;;;;6185658;23;20019;-83
2022/11/07 04:00:49;;;;;;;13.65;5.40;;;10.40;99.90;;;;;;6185583;23;20118;-83
2022/11/07 04:03:15;;;;;;;14.43;5.40;;;10.30;99.90;;;;;;6185335;23;20020;-83
2022/11/07 04:05:41;;;;;;;14.38;5.07;;;10.40;99.90;;;;;;6160685;23;20495;-83
2022/11/07 04:08:06;;;;;;;13.50;5.30;;;10.40;99.90;;;;;;6211489;23;20055;-83
2022/11/07 04:10:32;;;;;;;10.10;4.93;;;10.40;99.90;;;;;;6185030;23;20012;-82
2022/11/07 04:18:28;;;;;;;13.73;4.90;;;10.40;99.90;;;;;;6185535;23;20019;-83
2022/11/07 04:20:54;;;;;;;13.23;5.57;;;10.50;99.90;;;;;;6185372;23;20052;-83
2022/11/07 04:23:19;;;;;;;11.73;5.07;;;10.50;99.90;;;;;;6186174;23;20354;-82
2022/11/07 04:28:29;;;;;;;14.10;5.65;;;10.40;99.90;;;;;;6185678;23;20016;-83
2022/11/07 04:30:55;;;;;;;19.38;5.90;;;10.40;99.90;;;;;;6160661;23;20016;-83
2022/11/07 04:33:20;;;;;;;19.67;5.60;;;10.40;99.90;;;;;;6185035;23;20067;-82
2022/11/07 04:35:46;;;;;;;13.90;5.22;;;10.40;99.90;;;;;;6184689;23;20013;-82
2022/11/07 04:38:11;;;;;;;14.35;6.13;;;10.40;99.90;;;;;;6210210;23;20021;-82
2022/11/07 04:40:37;;;;;;;13.85;5.20;;;10.50;99.90;;;;;;6185343;23;20020;-82
2022/11/07 04:43:07;;;;;;;13.63;5.28;;;10.40;99.90;;;;;;6184974;23;20009;-82
2022/11/07 04:45:35;;;;;;;12.15;5.30;;;10.40;99.90;;;;;;6185240;23;20456;-82
2022/11/07 04:48:01;;;;;;;12.57;4.85;;;10.30;99.90;;;;;;6185188;23;20480;-82
2022/11/07 04:50:27;;;;;;;15.18;5.80;;;10.30;99.90;;;;;;6184617;23;20112;-82
2022/11/07 04:52:53;;;;;;;13.63;5.90;;;10.30;99.90;;;;;;6184983;23;20048;-83
2022/11/07 04:55:24;;;;;;;14.57;5.72;;;10.30;99.90;;;;;;6184062;23;20019;-83
2022/11/07 04:57:50;;;;;;;17.17;6.53;;;10.40;99.90;;;;;;6185627;23;20035;-83
2022/11/07 05:00:17;;;;;;;14.07;5.78;;;10.40;99.90;;;;;;6184433;23;20428;-82
2022/11/07 05:02:43;;;;;;;13.32;6.30;;;10.50;99.90;;;;;;6184488;23;20027;-83
2022/11/07 05:05:10;;;;;;;17.52;6.15;;;10.50;99.90;;;;;;6158507;23;20092;-82
2022/11/07 05:07:36;;;;;;;17.13;6.00;;;10.50;99.90;;;;;;6211132;23;20009;-82
2022/11/07 05:10:02;;;;;;;17.27;5.60;;;10.50;99.90;;;;;;6211113;23;20079;-82
2022/11/07 05:12:28;;;;;;;13.15;6.07;;;10.50;99.90;;;;;;6185026;23;20012;-83
2022/11/07 05:14:54;;;;;;;11.70;6.45;;;10.50;99.90;;;;;;6184003;23;20084;-82
2022/11/07 05:17:19;;;;;;;17.33;6.05;;;10.60;99.90;;;;;;6211291;23;20331;-82
2022/11/07 05:19:46;;;;;;;14.80;6.03;;;10.60;99.90;;;;;;6184478;23;20020;-83
2022/11/07 05:24:56;;;;;;;16.73;6.30;;;10.60;99.90;;;;;;6184816;23;20016;-83
2022/11/07 05:27:22;;;;;;;16.55;6.22;;;10.60;99.90;;;;;;6212321;23;20016;-82
2022/11/07 05:29:48;;;;;;;12.13;5.50;;;10.60;99.90;;;;;;6211054;23;20087;-83
2022/11/07 05:32:15;;;;;;;17.75;6.43;;;10.60;99.90;;;;;;6184571;23;20016;-83
2022/11/07 05:34:40;;;;;;;21.15;6.88;;;10.60;99.90;;;;;;6184663;23;20088;-83
2022/11/07 05:37:11;;;;;;;16.25;5.72;;;10.60;99.90;;;;;;6184511;23;20052;-83
2022/11/07 05:39:37;;;;;;;17.05;5.88;;;10.80;99.90;;;;;;6184975;23;20011;-83
2022/11/07 05:42:03;;;;;;;16.48;6.00;;;10.60;99.90;;;;;;6185540;23;20468;-83
2022/11/07 05:44:29;;;;;;;15.45;5.72;;;10.60;99.90;;;;;;6212027;23;20013;-83
2022/11/07 05:46:56;;;;;;;13.32;5.80;;;10.60;99.90;;;;;;6184569;23;20087;-83
2022/11/07 05:49:22;;;;;;;11.45;6.05;;;10.60;99.90;;;;;;6211137;23;20055;-82
2022/11/07 05:51:47;;;;;;;16.02;6.30;;;10.60;99.90;;;;;;6184569;23;20113;-83
2022/11/07 05:54:13;;;;;;;15.93;6.20;;;10.70;99.90;;;;;;6183332;23;20051;-83
2022/11/07 05:56:39;;;;;;;16.38;6.45;;;10.60;99.90;;;;;;6184207;23;20091;-82
2022/11/07 05:59:05;;;;;;;13.60;5.95;;;10.70;99.90;;;;;;6160287;23;20017;-82
2022/11/07 06:01:31;;;;;;;14.45;5.72;;;10.60;99.90;;;;;;6183897;23;20095;-82
2022/11/07 06:03:56;;;;;;;16.25;6.03;;;10.70;99.90;;;;;;6184133;23;20032;-83
2022/11/07 06:06:22;;;;;;;17.02;6.50;;;10.70;99.90;;;;;;6185108;23;20345;-83
2022/11/07 06:08:48;;;;;;;12.68;5.47;;;10.70;99.90;;;;;;6159476;23;20020;-83
2022/11/07 06:11:13;;;;;;;12.48;5.63;;;10.70;99.90;;;;;;6184881;23;20012;-83
2022/11/07 06:13:39;;;;;;;16.02;5.80;;;10.70;99.90;;;;;;6211732;23;20023;-83
2022/11/07 06:16:05;;;;;;;20.02;5.90;;;10.70;99.90;;;;;;6210670;23;20016;-84
2022/11/07 06:18:30;;;;;;;11.77;5.40;;;10.70;99.90;;;;;;6213356;23;20013;-83
2022/11/07 06:20:59;;;;;;;19.10;6.32;;;10.70;99.90;;;;;;6215348;23;20046;-82
2022/11/07 06:23:25;;;;;;;12.82;5.25;;;10.70;99.90;;;;;;6215111;23;20017;-82
2022/11/07 06:25:51;;;;;;;16.08;4.82;;;10.60;99.90;;;;;;6163073;23;20028;-83
2022/11/07 06:28:16;;;;;;;10.43;4.90;;;10.60;99.90;;;;;;6187197;23;20012;-82
2022/11/07 06:30:42;;;;;;;10.68;4.78;;;10.90;99.90;;;;;;6215221;23;20074;-82
2022/11/07 06:33:16;;;;;;;18.52;5.43;;;10.60;99.90;;;;;;6186676;23;20024;-82
2022/11/07 06:35:43;;;;;;;11.75;5.50;;;10.60;99.90;;;;;;6187498;23;20275;-83
2022/11/07 06:38:11;;;;;;;10.80;4.30;;;10.50;99.90;;;;;;6188149;23;20483;-82
2022/11/07 06:40:38;;;;;;;14.52;4.88;;;10.50;99.90;;;;;;6213485;23;20040;-83
2022/11/07 06:43:09;;;;;;;14.32;5.10;;;10.60;99.90;;;;;;6187459;23;20091;-82
2022/11/07 06:45:35;;;;;;;12.20;5.20;;;10.60;99.90;;;;;;6214288;23;20020;-82
2022/11/07 06:48:01;;;;;;;11.60;4.57;;;10.60;99.90;;;;;;6186764;23;20017;-83
2022/11/07 06:50:26;;;;;;;14.95;4.85;;;10.60;99.90;;;;;;6186520;23;20027;-83
2022/11/07 06:52:52;;;;;;;10.98;4.28;;;10.70;99.90;;;;;;6162308;23;20020;-82
2022/11/07 06:55:20;;;;;;;12.55;4.60;;;10.60;99.90;;;;;;6213915;23;20331;-83
2022/11/07 06:57:47;;;;;;;11.70;4.65;;;10.60;99.90;;;;;;6213918;23;20012;-82
2022/11/07 07:00:13;;;;;;;16.08;5.15;;;10.70;99.90;;;;;;6187751;23;20027;-82
2022/11/07 07:02:39;;;;;;;12.02;5.25;;;10.60;99.90;;;;;;6188780;23;20015;-83
2022/11/07 07:05:05;;;;;;;14.13;5.43;;;10.60;99.90;;;;;;6161353;23;20392;-84
2022/11/07 07:07:31;;;;;;;13.90;4.88;;;10.70;99.90;;;;;;6188995;23;20020;-84
2022/11/07 07:09:57;;;;;;;15.55;5.53;;;10.60;99.90;;;;;;6187418;23;20047;-84
2022/11/07 07:12:23;;;;;;;13.88;6.10;;;10.60;99.90;;;;;;6213420;23;20016;-85
2022/11/07 07:14:48;;;;;;;17.02;6.43;;;10.70;99.90;;;;;;6186913;23;20016;-84
2022/11/07 07:17:14;;;;;;;18.55;6.10;;;11.00;99.90;;;;;;6187509;23;20345;-83
2022/11/07 07:19:40;;;;;;;15.48;6.20;;;10.70;99.90;;;;;;6184497;23;20008;-86
2022/11/07 07:22:11;;;;;;;24.13;7.40;;;10.70;99.90;;;;;;6184295;23;20027;-85
2022/11/07 07:24:37;;;;;;;17.85;6.82;;;10.70;99.90;;;;;;6183281;23;20100;-85
2022/11/07 07:27:02;;;;;;;20.52;6.75;;;10.70;99.90;;;;;;6184113;23;20052;-86
2022/11/07 07:29:28;;;;;;;18.63;7.22;;;10.70;99.90;;;;;;6182720;23;20405;-85
2022/11/07 07:31:54;;;;;;;19.15;7.70;;;10.70;99.90;;;;;;6210945;23;20023;-85
2022/11/07 07:34:19;;;;;;;15.38;7.15;;;10.70;99.90;;;;;;6207803;23;20004;-86
2022/11/07 07:36:45;;;;;;;20.65;7.60;;;10.70;99.90;;;;;;6182384;23;20439;-85
2022/11/07 07:39:10;;;;;;;15.95;7.40;;;10.70;99.90;;;;;;6184000;23;20015;-87
2022/11/07 07:41:36;;;;;;;16.05;7.88;;;10.70;99.90;;;;;;6182961;23;20024;-86
2022/11/07 07:44:02;;;;;;;18.63;8.27;;;10.70;99.90;;;;;;6182391;23;20020;-85
2022/11/07 07:46:27;;;;;;;25.95;9.50;;;10.70;99.90;;;;;;6210237;23;20024;-86
2022/11/07 07:48:53;;;;;;;15.05;7.82;;;10.70;99.90;;;;;;6210599;23;20016;-84
2022/11/07 07:51:18;;;;;;;20.63;7.80;;;10.70;99.90;;;;;;6210728;23;20070;-84
2022/11/07 07:53:44;;;;;;;18.83;7.75;;;10.70;99.90;;;;;;6210059;23;20433;-84
2022/11/07 07:56:10;;;;;;;19.75;8.07;;;10.70;99.90;;;;;;6183016;23;20012;-85
2022/11/07 07:58:35;;;;;;;21.77;8.20;;;10.70;99.90;;;;;;6182225;23;20019;-84
2022/11/07 08:01:02;;;;;;;24.40;8.63;;;10.80;99.90;;;;;;6182747;23;20095;-85
2022/11/07 08:03:28;;;;;;;18.38;8.05;;;10.70;99.90;;;;;;6181986;23;20027;-85
2022/11/07 08:05:55;;;;;;;19.42;8.68;;;10.80;99.90;;;;;;6209188;23;20838;-85
2022/11/07 08:08:21;;;;;;;21.05;8.98;;;10.80;99.90;;;;;;6207924;23;20377;-85
2022/11/07 08:10:52;;;;;;;19.80;9.48;;;10.80;99.90;;;;;;6208993;23;20016;-85
2022/11/07 08:13:23;;;;;;;19.65;8.38;;;10.70;99.90;;;;;;6182421;23;20039;-85
2022/11/07 08:15:49;;;;;;;24.35;8.05;;;10.80;99.90;;;;;;6209444;23;20019;-88
2022/11/07 08:18:16;;;;;;;21.25;7.43;;;10.80;99.90;;;;;;6208769;23;20032;-88
2022/11/07 08:20:42;;;;;;;21.40;9.13;;;10.80;99.90;;;;;;6208603;23;20012;-87
2022/11/07 08:23:09;;;;;;;19.75;7.05;;;10.80;99.90;;;;;;6208629;23;20012;-86
2022/11/07 08:25:35;;;;;;;17.77;9.25;;;10.80;99.90;;;;;;6156179;23;20016;-87
2022/11/07 08:28:01;;;;;;;20.42;7.95;;;10.80;99.90;;;;;;6182130;23;20008;-87
2022/11/07 08:30:27;;;;;;;19.55;7.57;;;10.90;99.90;;;;;;6210196;23;20024;-86
2022/11/07 08:32:53;;;;;;;16.60;7.00;;;10.90;99.90;;;;;;6181789;23;20091;-88
2022/11/07 08:35:19;;;;;;;17.30;7.93;;;10.90;99.90;;;;;;6210297;23;20325;-88
2022/11/07 08:37:44;;;;;;;18.40;8.88;;;10.90;99.90;;;;;;6208304;23;20023;-87
2022/11/07 08:40:10;;;;;;;17.95;7.30;;;11.00;99.90;;;;;;6181048;23;20016;-87
2022/11/07 08:42:36;;;;;;;23.80;8.10;;;11.00;99.90;;;;;;6208753;23;20016;-87
2022/11/07 08:45:01;;;;;;;21.15;7.90;;;11.00;99.90;;;;;;6211043;23;20031;-88
2022/11/07 08:47:27;;;;;;;18.17;7.90;;;11.10;99.90;;;;;;6211224;23;20009;-88
2022/11/07 08:49:53;;;;;;;15.45;6.28;;;11.10;99.90;;;;;;6211321;23;20496;-88
2022/11/07 08:52:19;;;;;;;18.83;6.80;;;11.10;99.90;;;;;;6211126;23;20062;-87
2022/11/07 08:54:44;;;;;;;18.83;6.70;;;11.20;99.90;;;;;;6210822;23;20013;-88
2022/11/07 08:57:10;;;;;;;19.33;7.20;;;11.20;99.90;;;;;;6210700;23;20451;-88
2022/11/07 08:59:35;;;;;;;19.40;7.03;;;11.30;99.90;;;;;;6210943;23;20023;-88
2022/11/07 09:02:01;;;;;;;15.52;6.53;;;11.20;99.90;;;;;;6211329;23;20052;-88
2022/11/07 09:04:26;;;;;;;17.40;6.50;;;11.30;99.90;;;;;;6184229;23;20024;-88
2022/11/07 09:06:52;;;;;;;21.08;6.25;;;11.30;99.90;;;;;;6210803;23;20075;-87
2022/11/07 09:09:17;;;;;;;16.70;6.28;;;11.30;99.90;;;;;;6210680;23;20016;-88
2022/11/07 09:11:43;;;;;;;22.05;7.43;;;11.30;99.90;;;;;;6209012;23;20016;-88
2022/11/07 09:14:09;;;;;;;19.67;7.05;;;11.50;99.90;;;;;;6209429;23;20071;-87
2022/11/07 09:16:34;;;;;;;17.77;6.57;;;11.40;99.90;;;;;;6210191;23;20048;-87
2022/11/07 09:19:00;;;;;;;17.88;6.63;;;11.40;99.90;;;;;;6210814;23;20020;-88
2022/11/07 09:21:25;;;;;;;17.60;5.95;;;11.40;99.90;;;;;;6210080;23;20059;-87
2022/11/07 09:23:51;;;;;;;20.65;6.10;;;11.50;99.90;;;;;;6183446;23;20469;-88
2022/11/07 09:26:17;;;;;;;14.93;6.63;;;11.50;99.90;;;;;;6210051;23;20008;-88
2022/11/07 09:28:42;;;;;;;15.90;5.93;;;11.50;99.90;;;;;;6210669;23;20329;-88
2022/11/07 09:31:08;;;;;;;15.80;5.53;;;11.60;99.90;;;;;;6209530;23;20067;-86
2022/11/07 09:33:34;;;;;;;14.15;4.93;;;11.60;99.90;;;;;;6182138;23;20058;-86
2022/11/07 09:36:00;;;;;;;12.50;5.10;;;11.60;99.90;;;;;;6209677;23;20012;-86
2022/11/07 09:38:27;;;;;;;19.05;6.28;;;11.70;99.90;;;;;;6210925;23;20004;-86
2022/11/07 09:41:02;;;;;;;19.50;6.45;;;11.70;99.90;;;;;;6208601;23;20025;-85
2022/11/07 09:43:31;;;;;;;16.05;5.47;;;11.80;99.90;;;;;;6209781;23;20059;-85
2022/11/07 09:46:13;;;;;;;14.73;4.88;;;11.80;99.90;;;;;;6210743;23;20017;-86
2022/11/07 09:48:46;;;;;;;15.20;5.35;;;11.80;99.90;;;;;;6209819;23;20017;-88
2022/11/07 09:51:17;;;;;;;15.20;5.20;;;11.80;99.90;;;;;;6208507;23;20483;-86
2022/11/07 09:53:51;;;;;;;16.65;5.57;;;12.10;99.90;;;;;;6183779;23;20054;-87
2022/11/07 09:56:17;;;;;;;21.77;5.40;;;11.90;99.90;;;;;;6209161;23;20015;-87
2022/11/07 09:58:45;;;;;;;20.42;5.25;;;11.90;99.90;;;;;;6210165;23;20040;-86
2022/11/07 10:01:16;;;;;;;14.02;5.15;;;11.90;99.90;;;;;;6182813;23;20020;-88
2022/11/07 10:03:42;;;;;;;17.17;5.43;;;11.90;99.90;;;;;;6209627;23;20009;-87
2022/11/07 10:06:28;;;;;;;17.08;5.18;;;11.90;99.90;;;;;;6182627;23;20013;-88
2022/11/07 10:09:15;;;;;;;14.35;5.07;;;11.90;99.90;;;;;;6156606;23;20143;-88
2022/11/07 10:11:46;;;;;;;12.13;4.43;;;11.90;99.90;;;;;;6182060;23;20349;-88
2022/11/07 10:14:37;;;;;;;18.70;5.30;;;12.00;99.90;;;;;;6156920;23;20016;-88
2022/11/07 10:17:17;;;;;;;19.67;4.72;;;12.00;99.90;;;;;;6157854;23;20071;-87
2022/11/07 10:20:01;;;;;;;18.55;4.32;;;12.00;99.90;;;;;;6209346;23;20467;-89
2022/11/07 10:22:56;;;;;;;15.30;4.72;;;12.00;99.90;;;;;;6182255;23;20445;-88
2022/11/07 10:25:22;;;;;;;16.55;4.55;;;12.00;99.90;;;;;;6180822;23;20009;-88
2022/11/07 10:28:00;;;;;;;18.40;4.40;;;12.10;99.90;;;;;;6157747;23;20063;-88
2022/11/07 10:30:25;;;;;;;15.32;4.90;;;12.10;99.90;;;;;;6209263;23;20494;-88
2022/11/07 10:33:06;;;;;;;13.85;4.63;;;12.10;99.90;;;;;;6183835;23;20036;-87
2022/11/07 10:35:38;;;;;;;15.48;4.07;;;12.10;99.90;;;;;;6188601;23;20315;-89
2022/11/07 10:38:35;;;;;;;13.57;4.35;;;12.20;99.90;;;;;;6182824;23;20017;-87
2022/11/07 10:41:00;;;;;;;17.48;4.25;;;12.30;99.90;;;;;;6176422;23;20035;-87
2022/11/07 10:43:38;;;;;;;10.43;4.32;;;12.30;99.90;;;;;;6176730;23;20341;-86
2022/11/07 10:46:12;;;;;;;12.05;4.18;;;12.30;99.90;;;;;;6202622;23;20084;-87
2022/11/07 10:48:52;;;;;;;14.73;4.45;;;12.30;99.90;;;;;;6177327;23;20032;-87
2022/11/07 10:51:17;;;;;;;14.27;4.03;;;12.30;99.90;;;;;;6177059;23;20785;-88
2022/11/07 10:53:44;;;;;;;11.95;4.30;;;12.40;99.90;;;;;;6178860;23;20040;-85
2022/11/07 10:56:11;;;;;;;19.52;5.47;;;12.40;99.90;;;;;;6179181;23;20013;-86
2022/11/07 10:58:44;;;;;;;14.38;4.40;;;12.50;99.90;;;;;;6177943;23;20322;-88
2022/11/07 11:01:10;;;;;;;13.88;4.32;;;12.50;99.90;;;;;;6177545;23;20020;-86
2022/11/07 11:03:39;;;;;;;9.68;4.13;;;12.60;99.90;;;;;;6174826;23;20027;-85
2022/11/07 11:06:10;;;;;;;17.65;4.63;;;12.60;99.90;;;;;;6174525;23;20095;-86
2022/11/07 11:08:37;;;;;;;11.68;4.40;;;12.60;99.90;;;;;;6174563;23;20017;-86
2022/11/07 11:11:25;;;;;;;15.63;4.20;;;12.70;99.90;;;;;;6176945;23;20453;-85
2022/11/07 11:14:04;;;;;;;18.80;5.00;;;12.70;99.90;;;;;;6179877;23;20568;-86
2022/11/07 11:16:33;;;;;;;14.38;4.05;;;13.20;99.90;;;;;;6179136;23;20460;-86
2022/11/07 11:19:00;;;;;;;14.00;3.85;;;12.80;99.90;;;;;;6176929;23;20445;-87
2022/11/07 11:21:36;;;;;;;16.25;4.65;;;13.00;99.90;;;;;;6178837;23;20017;-86
2022/11/07 11:24:22;;;;;;;11.82;4.05;;;12.90;99.90;;;;;;6178648;23;20071;-85
2022/11/07 11:26:50;;;;;;;12.07;4.00;;;13.00;99.90;;;;;;6178694;23;20788;-86
2022/11/07 11:29:40;;;;;;;14.80;4.50;;;13.10;99.90;;;;;;6178027;23;20013;-86
2022/11/07 11:32:15;;;;;;;9.32;3.85;;;13.10;99.90;;;;;;6179710;23;20014;-86
2022/11/07 11:35:07;;;;;;;14.65;3.72;;;13.10;99.90;;;;;;6180174;23;20005;-86
2022/11/07 11:37:39;;;;;;;13.02;4.07;;;13.10;99.90;;;;;;6178410;23;20013;-86
2022/11/07 11:40:11;;;;;;;14.20;3.83;;;13.10;99.90;;;;;;6194642;23;20044;-86
2022/11/07 11:42:47;;;;;;;12.32;4.70;;;13.10;99.90;;;;;;6209582;23;20017;-87
2022/11/07 11:45:44;;;;;;;14.38;4.20;;;13.10;99.90;;;;;;6182843;23;20057;-86
2022/11/07 11:48:28;;;;;;;13.35;4.05;;;13.10;99.90;;;;;;6208261;23;20032;-85
2022/11/07 11:51:12;;;;;;;14.13;4.10;;;13.10;99.90;;;;;;6182433;23;20048;-87
2022/11/07 11:53:37;;;;;;;11.82;3.80;;;13.20;99.90;;;;;;6209114;23;20012;-86
2022/11/07 11:56:06;;;;;;;14.70;4.03;;;13.20;99.90;;;;;;6210016;23;20020;-86
2022/11/07 11:58:42;;;;;;;14.80;3.72;;;13.20;99.90;;;;;;6208469;23;20020;-86
2022/11/07 12:01:32;;;;;;;13.38;3.75;;;13.20;99.90;;;;;;6181271;23;20093;-86
2022/11/07 12:04:04;;;;;;;15.45;4.32;;;13.30;99.90;;;;;;6208562;23;20032;-87
2022/11/07 12:06:36;;;;;;;11.13;3.03;;;13.30;99.90;;;;;;6207106;23;20017;-87
2022/11/07 12:09:26;;;;;;;9.52;3.38;;;13.30;99.90;;;;;;6208133;23;20453;-85
2022/11/07 12:12:15;;;;;;;12.73;3.78;;;13.30;99.90;;;;;;6207018;23;20329;-86
2022/11/07 12:15:02;;;;;;;10.52;3.05;;;13.30;99.90;;;;;;6182787;23;20472;-86
2022/11/07 12:17:42;;;;;;;14.73;6.35;;;13.40;99.90;;;;;;6184370;23;20023;-86
2022/11/07 12:20:31;;;;;;;11.23;3.28;;;13.40;99.90;;;;;;6211049;23;20012;-86
2022/11/07 12:23:38;;;;;;;10.90;3.05;;;13.50;99.90;;;;;;6183747;23;20064;-86
2022/11/07 12:26:17;;;;;;;11.52;2.83;;;13.50;99.90;;;;;;6183648;23;20013;-86
2022/11/07 12:28:51;;;;;;;13.70;3.45;;;13.60;99.90;;;;;;6183189;23;20024;-86
2022/11/07 12:31:39;;;;;;;10.70;3.03;;;13.60;99.90;;;;;;6211672;23;20016;-86
2022/11/07 12:34:42;;;;;;;15.63;3.58;;;13.60;99.90;;;;;;6182565;23;20825;-86
2022/11/07 12:37:45;;;;;;;9.82;2.80;;;13.60;99.90;;;;;;6201445;23;20437;-86
2022/11/07 12:40:25;;;;;;;10.57;3.22;;;13.70;99.90;;;;;;6211547;23;20028;-86
2022/11/07 12:43:21;;;;;;;10.38;3.15;;;13.70;99.90;;;;;;6214206;23;20024;-85
2022/11/07 12:45:58;;;;;;;10.27;2.70;;;13.70;99.90;;;;;;6210931;23;20023;-87
2022/11/07 12:48:32;;;;;;;10.52;2.67;;;13.70;99.90;;;;;;6184238;23;20453;-85
2022/11/07 12:51:08;;;;;;;;;;;13.80;99.90;;;;;;6182672;23;20023;-86
2022/11/07 12:54:01;;;;;;;8.68;3.50;;;13.70;99.90;;;;;;6211574;23;19912;-84
2022/11/07 12:56:31;;;;;;;12.73;2.90;;;13.70;99.90;;;;;;6186743;23;20088;-87
2022/11/07 12:59:01;;;;;;;6.50;2.50;;;13.80;99.90;;;;;;6159963;23;20008;-86
2022/11/07 13:01:46;;;;;;;12.88;2.88;;;13.80;99.90;;;;;;6160506;23;20433;-86
2022/11/07 13:04:29;;;;;;;8.70;2.92;;;13.80;99.90;;;;;;6184118;23;20023;-86